createdAt,value
2022-10-01T00:02:05.123Z,100526.63
2022-10-01T00:04:32.878Z,100523.56
2022-10-01T00:07:04.574Z,100523.63
2022-10-01T00:09:32.859Z,100523.28
2022-10-01T00:12:00.798Z,100520.69
2022-10-01T00:14:29.500Z,100523.56
2022-10-01T00:16:58.585Z,100517.16
2022-10-01T00:19:26.300Z,100512.34
2022-10-01T00:21:54.036Z,100510.84
2022-10-01T00:24:21.722Z,100511.72
2022-10-01T00:26:49.444Z,100497.78
2022-10-01T00:29:17.125Z,100508.91
2022-10-01T00:31:44.937Z,100507.53
2022-10-01T00:34:15.159Z,100507.34
2022-10-01T00:36:43.226Z,100501.44
2022-10-01T00:39:12.260Z,100503.13
2022-10-01T00:41:39.978Z,100503.50
2022-10-01T00:44:33.205Z,100499.16
2022-10-01T00:47:06.278Z,100495.63
2022-10-01T00:49:37.946Z,100496.53
2022-10-01T00:52:09.343Z,100490.28
2022-10-01T00:54:41.361Z,100490.75
2022-10-01T00:57:09.208Z,100483.03
2022-10-01T00:59:37.505Z,100491.53
2022-10-01T01:02:05.341Z,100487.50
2022-10-01T01:04:33.173Z,100490.47
2022-10-01T01:07:03.252Z,100494.97
2022-10-01T01:09:32.666Z,100493.13
2022-10-01T01:12:07.952Z,100489.31
2022-10-01T01:14:41.703Z,100487.16
2022-10-01T01:17:13.890Z,100486.44
2022-10-01T01:19:52.639Z,100484.53
2022-10-01T01:22:23.771Z,100477.50
2022-10-01T01:24:55.869Z,100483.34
2022-10-01T01:27:29.309Z,100481.91
2022-10-01T01:30:03.669Z,100480.34
2022-10-01T01:32:35.647Z,100465.94
2022-10-01T01:35:05.900Z,100468.31
2022-10-01T01:37:36.732Z,100466.06
2022-10-01T01:40:05.739Z,100462.88
2022-10-01T01:42:37.230Z,100462.19
2022-10-01T01:45:09.896Z,100455.75
2022-10-01T01:47:39.670Z,100457.69
2022-10-01T01:50:08.591Z,100451.47
2022-10-01T01:52:36.527Z,100450.28
2022-10-01T01:55:07.308Z,100445.91
2022-10-01T01:57:38.011Z,100449.09
2022-10-01T02:00:08.637Z,100454.41
2022-10-01T02:02:39.375Z,100447.31
2022-10-01T02:05:10.579Z,100451.34
2022-10-01T02:07:54.116Z,100446.69
2022-10-01T02:10:33.601Z,100452.38
2022-10-01T02:13:13.514Z,100444.50
2022-10-01T02:15:51.879Z,100444.84
2022-10-01T02:18:26.024Z,100437.78
2022-10-01T02:20:57.913Z,100435.56
2022-10-01T02:23:29.838Z,100442.13
2022-10-01T02:25:59.779Z,100451.16
2022-10-01T02:28:27.944Z,100455.25
2022-10-01T02:30:57.756Z,100444.03
2022-10-01T02:33:30.426Z,100446.22
2022-10-01T02:35:59.986Z,100445.63
2022-10-01T02:38:29.436Z,100442.63
2022-10-01T02:41:00.881Z,100436.94
2022-10-01T02:43:33.183Z,100439.03
2022-10-01T02:46:05.069Z,100440.94
2022-10-01T02:48:32.808Z,100435.59
2022-10-01T02:51:05.173Z,100427.28
2022-10-01T02:53:36.850Z,100433.19
2022-10-01T02:56:05.776Z,100434.59
2022-10-01T02:58:32.638Z,100428.91
2022-10-01T03:01:01.760Z,100426.78
2022-10-01T03:03:32.371Z,100424.69
2022-10-01T03:06:00.160Z,100428.63
2022-10-01T03:08:28.384Z,100425.72
2022-10-01T03:10:56.057Z,100421.03
2022-10-01T03:13:26.196Z,100413.88
2022-10-01T03:15:53.887Z,100411.91
2022-10-01T03:18:22.931Z,100406.97
2022-10-01T03:20:50.636Z,100405.06
2022-10-01T03:23:18.291Z,100396.88
2022-10-01T03:25:45.974Z,100392.47
2022-10-01T03:28:13.703Z,100400.22
2022-10-01T03:30:41.397Z,100392.09
2022-10-01T03:33:09.093Z,100392.44
2022-10-01T03:35:38.118Z,100385.38
2022-10-01T03:38:05.885Z,100381.81
2022-10-01T03:40:37.839Z,100377.88
2022-10-01T03:43:05.506Z,100377.91
2022-10-01T03:45:33.200Z,100381.53
2022-10-01T03:48:01.171Z,100379.69
2022-10-01T03:50:28.874Z,100369.53
2022-10-01T03:52:58.027Z,100371.63
2022-10-01T03:55:25.889Z,100370.72
2022-10-01T03:57:53.626Z,100362.41
2022-10-01T04:00:21.341Z,100367.59
2022-10-01T04:02:49.100Z,100367.47
2022-10-01T04:05:17.064Z,100365.69
2022-10-01T04:07:45.071Z,100365.59
2022-10-01T04:10:14.777Z,100356.31
2022-10-01T04:12:42.465Z,100357.94
2022-10-01T04:15:10.996Z,100360.94
2022-10-01T04:17:41.636Z,100363.09
2022-10-01T04:20:12.884Z,100356.59
2022-10-01T04:22:42.022Z,100347.75
2022-10-01T04:25:11.298Z,100349.63
2022-10-01T04:27:40.839Z,100349.72
2022-10-01T04:30:10.425Z,100339.97
2022-10-01T04:32:39.089Z,100342.66
2022-10-01T04:35:11.163Z,100351.81
2022-10-01T04:37:38.890Z,100343.50
2022-10-01T04:40:07.258Z,100347.56
2022-10-01T04:42:35.428Z,100345.50
2022-10-01T04:45:05.156Z,100340.22
2022-10-01T04:47:37.394Z,100350.47
2022-10-01T04:50:06.263Z,100349.72
2022-10-01T04:52:33.967Z,100339.31
2022-10-01T04:55:01.614Z,100330.03
2022-10-01T04:57:29.863Z,100337.50
2022-10-01T04:59:57.518Z,100331.88
2022-10-01T05:02:26.588Z,100337.84
2022-10-01T05:04:54.362Z,100325.38
2022-10-01T05:07:22.852Z,100325.28
2022-10-01T05:09:50.621Z,100327.81
2022-10-01T05:12:22.346Z,100326.91
2022-10-01T05:14:52.345Z,100325.66
2022-10-01T05:17:20.086Z,100330.25
2022-10-01T05:19:49.956Z,100329.34
2022-10-01T05:22:19.261Z,100330.81
2022-10-01T05:24:47.455Z,100321.06
2022-10-01T05:27:15.088Z,100324.13
2022-10-01T05:29:43.634Z,100326.81
2022-10-01T05:32:12.316Z,100317.59
2022-10-01T05:34:40.472Z,100318.31
2022-10-01T05:37:09.829Z,100316.69
2022-10-01T05:39:37.559Z,100305.38
2022-10-01T05:42:06.477Z,100311.56
2022-10-01T05:44:37.913Z,100311.16
2022-10-01T05:47:06.724Z,100304.94
2022-10-01T05:49:34.845Z,100300.22
2022-10-01T05:52:02.788Z,100293.63
2022-10-01T05:54:31.814Z,100292.50
2022-10-01T05:56:59.670Z,100284.31
2022-10-01T05:59:31.666Z,100289.44
2022-10-01T06:02:00.036Z,100275.19
2022-10-01T06:04:28.647Z,100271.22
2022-10-01T06:06:56.715Z,100266.00
2022-10-01T06:09:24.473Z,100261.53
2022-10-01T06:11:53.522Z,100261.06
2022-10-01T06:14:21.245Z,100258.56
2022-10-01T06:16:49.144Z,100255.28
2022-10-01T06:19:17.426Z,100245.41
2022-10-01T06:21:45.107Z,100248.09
2022-10-01T06:24:12.873Z,100245.03
2022-10-01T06:26:40.596Z,100243.06
2022-10-01T06:29:09.733Z,100239.69
2022-10-01T06:31:38.434Z,100239.00
2022-10-01T06:34:06.623Z,100229.19
2022-10-01T06:36:34.800Z,100229.22
2022-10-01T06:39:02.699Z,100230.78
2022-10-01T06:41:30.410Z,100231.25
2022-10-01T06:43:58.101Z,100226.97
2022-10-01T06:46:28.834Z,100225.78
2022-10-01T06:48:56.480Z,100226.28
2022-10-01T06:51:44.851Z,100222.13
2022-10-01T06:54:12.701Z,100220.84
2022-10-01T06:56:40.422Z,100212.47
2022-10-01T06:59:08.120Z,100212.09
2022-10-01T07:01:37.710Z,100208.28
2022-10-01T07:04:05.760Z,100213.69
2022-10-01T07:06:33.579Z,100203.88
2022-10-01T07:09:01.563Z,100196.03
2022-10-01T07:11:29.271Z,100195.66
2022-10-01T07:13:57.601Z,100193.09
2022-10-01T07:16:25.366Z,100199.41
2022-10-01T07:18:54.689Z,100191.63
2022-10-01T07:21:22.412Z,100190.38
2022-10-01T07:23:50.213Z,100186.53
2022-10-01T07:26:18.164Z,100178.69
2022-10-01T07:28:46.611Z,100179.63
2022-10-01T07:31:14.490Z,100175.31
2022-10-01T07:33:42.420Z,100172.72
2022-10-01T07:36:13.298Z,100161.56
2022-10-01T07:38:43.457Z,100161.44
2022-10-01T07:41:11.193Z,100160.22
2022-10-01T07:43:39.353Z,100157.91
2022-10-01T07:46:07.213Z,100153.22
2022-10-01T07:48:34.978Z,100154.53
2022-10-01T07:51:03.742Z,100144.69
2022-10-01T07:53:32.811Z,100141.06
2022-10-01T07:56:01.801Z,100132.41
2022-10-01T07:58:29.581Z,100131.00
2022-10-01T08:00:58.755Z,100132.00
2022-10-01T08:03:26.609Z,100132.78
2022-10-01T08:05:54.225Z,100130.34
2022-10-01T08:08:21.974Z,100113.84
2022-10-01T08:10:51.050Z,100117.38
2022-10-01T08:13:20.395Z,100112.97
2022-10-01T08:15:50.421Z,100102.03
2022-10-01T08:18:18.231Z,100103.59
2022-10-01T08:20:46.163Z,100107.22
2022-10-01T08:23:16.605Z,100102.81
2022-10-01T08:25:45.231Z,100097.09
2022-10-01T08:28:15.315Z,100103.28
2022-10-01T08:30:43.708Z,100083.50
2022-10-01T08:33:13.053Z,100095.16
2022-10-01T08:35:41.627Z,100096.09
2022-10-01T08:38:09.837Z,100092.81
2022-10-01T08:40:43.731Z,100098.47
2022-10-01T08:43:26.019Z,100089.22
2022-10-01T08:45:54.386Z,100095.75
2022-10-01T08:48:32.981Z,100079.09
2022-10-01T08:51:05.302Z,100092.31
2022-10-01T08:53:35.221Z,100083.69
2022-10-01T08:56:03.527Z,100075.13
2022-10-01T08:58:40.823Z,100075.94
2022-10-01T09:01:10.824Z,100068.28
2022-10-01T09:03:38.708Z,100063.72
2022-10-01T09:06:19.678Z,100055.91
2022-10-01T09:08:59.125Z,100067.69
2022-10-01T09:11:37.410Z,100057.41
2022-10-01T09:14:17.359Z,100051.72
2022-10-01T09:16:49.718Z,100047.53
2022-10-01T09:19:31.547Z,100033.28
2022-10-01T09:22:02.872Z,100029.25
2022-10-01T09:24:42.098Z,100032.56
2022-10-01T09:27:14.663Z,100013.31
2022-10-01T09:29:47.562Z,100016.50
2022-10-01T09:32:18.963Z,100008.53
2022-10-01T09:34:46.693Z,100013.41
2022-10-01T09:37:24.379Z,100012.66
2022-10-01T09:40:00.899Z,100011.47
2022-10-01T09:42:30.351Z,99993.31
2022-10-01T09:44:59.674Z,100009.44
2022-10-01T09:47:28.097Z,100003.28
2022-10-01T09:49:56.959Z,100000.94
2022-10-01T09:52:28.955Z,99994.25
2022-10-01T09:55:00.236Z,99990.41
2022-10-01T09:57:33.624Z,99979.84
2022-10-01T10:00:09.899Z,99979.09
2022-10-01T10:02:46.082Z,99982.88
2022-10-01T10:05:18.206Z,99977.59
2022-10-01T10:07:46.809Z,99977.38
2022-10-01T10:10:24.805Z,99975.88
2022-10-01T10:12:56.507Z,99979.00
2022-10-01T10:15:26.444Z,99981.75
2022-10-01T10:17:55.677Z,99972.56
2022-10-01T10:20:30.720Z,99968.19
2022-10-01T10:23:08.823Z,99972.78
2022-10-01T10:25:36.544Z,99980.44
2022-10-01T10:28:05.099Z,99971.63
2022-10-01T10:30:34.487Z,99977.16
2022-10-01T10:33:07.602Z,99972.44
2022-10-01T10:35:36.222Z,99969.38
2022-10-01T10:38:04.088Z,99975.28
2022-10-01T10:40:36.185Z,99965.34
2022-10-01T10:43:03.882Z,99982.72
2022-10-01T10:45:35.549Z,99969.31
2022-10-01T10:48:04.572Z,99964.31
2022-10-01T10:50:33.878Z,99951.03
2022-10-01T10:53:13.550Z,99954.44
2022-10-01T10:55:41.672Z,99953.63
2022-10-01T10:58:12.880Z,99939.41
2022-10-01T11:00:49.938Z,99926.75
2022-10-01T11:03:19.634Z,99946.72
2022-10-01T11:05:51.468Z,99953.84
2022-10-01T11:08:21.547Z,99953.66
2022-10-01T11:10:57.498Z,99957.00
2022-10-01T11:13:39.240Z,99936.88
2022-10-01T11:16:28.722Z,99932.44
2022-10-01T11:19:08.903Z,99939.72
2022-10-01T11:21:48.411Z,99938.47
2022-10-01T11:24:35.866Z,99938.16
2022-10-01T11:27:10.454Z,99943.97
2022-10-01T11:29:54.013Z,99931.59
2022-10-01T11:32:33.505Z,99929.16
2022-10-01T11:35:13.689Z,99918.66
2022-10-01T11:37:50.438Z,99910.97
2022-10-01T11:40:24.891Z,99907.38
2022-10-01T11:42:55.335Z,99914.38
2022-10-01T11:45:25.401Z,99908.22
2022-10-01T11:47:57.469Z,99925.47
2022-10-01T11:50:27.908Z,99909.72
2022-10-01T11:52:58.606Z,99913.19
2022-10-01T11:55:46.962Z,99905.78
2022-10-01T11:58:37.784Z,99918.94
2022-10-01T12:01:10.985Z,99930.19
2022-10-01T12:03:51.031Z,99918.63
2022-10-01T12:06:24.509Z,99913.44
2022-10-01T12:08:58.185Z,99915.34
2022-10-01T12:11:31.032Z,99914.16
2022-10-01T12:14:03.500Z,99908.81
2022-10-01T12:16:38.347Z,99909.72
2022-10-01T12:19:13.672Z,99909.47
2022-10-01T12:21:44.775Z,99901.94
2022-10-01T12:24:14.347Z,99911.63
2022-10-01T12:26:50.611Z,99916.88
2022-10-01T12:29:21.398Z,99916.75
2022-10-01T12:31:54.178Z,99906.78
2022-10-01T12:34:33.440Z,99916.44
2022-10-01T12:37:10.328Z,99909.88
2022-10-01T12:39:45.272Z,99923.19
2022-10-01T12:42:32.923Z,99903.56
2022-10-01T12:45:09.858Z,99896.09
2022-10-01T12:47:43.712Z,99896.13
2022-10-01T12:50:24.412Z,99902.31
2022-10-01T12:53:01.347Z,99901.34
2022-10-01T12:55:42.512Z,99901.56
2022-10-01T12:58:17.937Z,99899.56
2022-10-01T13:00:52.730Z,99883.97
2022-10-01T13:03:38.646Z,99890.84
2022-10-01T13:06:16.650Z,99882.25
2022-10-01T13:08:53.236Z,99888.97
2022-10-01T13:11:30.297Z,99898.16
2022-10-01T13:13:58.452Z,99897.97
2022-10-01T13:16:30.806Z,99895.09
2022-10-01T13:19:03.209Z,99891.59
2022-10-01T13:21:43.409Z,99896.47
2022-10-01T13:24:17.440Z,99890.16
2022-10-01T13:26:49.151Z,99889.22
2022-10-01T13:29:28.034Z,99894.03
2022-10-01T13:31:58.295Z,99891.56
2022-10-01T13:34:40.768Z,99894.88
2022-10-01T13:37:14.647Z,99893.19
2022-10-01T13:39:43.510Z,99898.09
2022-10-01T13:42:20.233Z,99885.50
2022-10-01T13:44:53.674Z,99887.03
2022-10-01T13:47:21.665Z,99895.69
2022-10-01T13:49:58.928Z,99897.72
2022-10-01T13:52:28.150Z,99891.84
2022-10-01T13:54:56.980Z,99892.97
2022-10-01T13:57:31.517Z,99890.75
2022-10-01T14:00:00.899Z,99895.34
2022-10-01T14:02:38.151Z,99903.50
2022-10-01T14:05:16.673Z,99892.75
2022-10-01T14:07:47.520Z,99894.28
2022-10-01T14:10:16.776Z,99892.94
2022-10-01T14:13:13.664Z,99892.38
2022-10-01T14:16:00.440Z,99899.31
2022-10-01T14:18:31.322Z,99882.56
2022-10-01T14:21:06.144Z,99885.19
2022-10-01T14:23:39.130Z,99886.56
2022-10-01T14:26:14.018Z,99878.94
2022-10-01T14:28:54.746Z,99891.84
2022-10-01T14:31:29.937Z,99881.38
2022-10-01T14:34:18.786Z,99871.47
2022-10-01T14:36:48.466Z,99875.03
2022-10-01T14:39:19.740Z,99878.88
2022-10-01T14:41:49.101Z,99887.59
2022-10-01T14:44:21.537Z,99878.69
2022-10-01T14:46:49.353Z,99881.19
2022-10-01T14:49:22.625Z,99874.03
2022-10-01T14:51:52.281Z,99865.06
2022-10-01T14:54:21.859Z,99866.09
2022-10-01T14:56:49.970Z,99870.69
2022-10-01T14:59:24.813Z,99880.22
2022-10-01T15:01:57.285Z,99879.25
2022-10-01T15:04:25.069Z,99871.19
2022-10-01T15:06:52.852Z,99873.72
2022-10-01T15:09:21.985Z,99886.28
2022-10-01T15:11:51.435Z,99879.09
2022-10-01T15:14:20.614Z,99875.78
2022-10-01T15:16:48.518Z,99877.38
2022-10-01T15:19:17.799Z,99883.91
2022-10-01T15:21:49.942Z,99874.47
2022-10-01T15:24:24.272Z,99884.78
2022-10-01T15:26:52.461Z,99886.06
2022-10-01T15:29:20.310Z,99893.56
2022-10-01T15:31:53.041Z,99892.84
2022-10-01T15:34:22.554Z,99897.91
2022-10-01T15:36:53.349Z,99895.16
2022-10-01T15:39:32.347Z,99897.84
2022-10-01T15:42:02.835Z,99899.63
2022-10-01T15:44:45.402Z,99895.31
2022-10-01T15:47:24.443Z,99905.59
2022-10-01T15:50:10.870Z,99898.59
2022-10-01T15:52:53.374Z,99899.38
2022-10-01T15:55:27.999Z,99899.50
2022-10-01T15:57:57.922Z,99909.78
2022-10-01T16:00:27.471Z,99889.41
2022-10-01T16:02:56.223Z,99893.22
2022-10-01T16:05:26.435Z,99894.06
2022-10-01T16:07:58.239Z,99897.16
2022-10-01T16:10:40.671Z,99898.97
2022-10-01T16:13:28.982Z,99896.38
2022-10-01T16:16:19.882Z,99906.34
2022-10-01T16:18:52.428Z,99910.66
2022-10-01T16:21:20.183Z,99913.16
2022-10-01T16:23:49.511Z,99911.03
2022-10-01T16:26:34.642Z,99906.19
2022-10-01T16:29:04.862Z,99913.78
2022-10-01T16:31:33.033Z,99922.69
2022-10-01T16:34:00.758Z,99922.66
2022-10-01T16:36:28.817Z,99932.66
2022-10-01T16:38:57.346Z,99930.06
2022-10-01T16:41:26.946Z,99938.19
2022-10-01T16:43:57.255Z,99942.47
2022-10-01T16:46:25.015Z,99934.06
2022-10-01T16:48:52.721Z,99950.53
2022-10-01T16:51:21.884Z,99941.34
2022-10-01T16:53:50.123Z,99941.34
2022-10-01T16:56:17.870Z,99944.94
2022-10-01T16:58:45.984Z,99942.31
2022-10-01T17:01:15.984Z,99952.31
2022-10-01T17:03:43.718Z,99963.91
2022-10-01T17:06:11.543Z,99971.84
2022-10-01T17:08:39.276Z,99958.75
2022-10-01T17:11:11.933Z,99968.75
2022-10-01T17:13:40.333Z,99961.81
2022-10-01T17:16:08.115Z,99953.25
2022-10-01T17:18:37.174Z,99955.50
2022-10-01T17:21:05.526Z,99952.34
2022-10-01T17:23:34.851Z,99956.25
2022-10-01T17:26:03.397Z,99957.34
2022-10-01T17:28:31.347Z,99953.75
2022-10-01T17:30:59.316Z,99950.22
2022-10-01T17:33:28.301Z,99950.06
2022-10-01T17:35:57.383Z,99948.75
2022-10-01T17:38:25.281Z,99952.13
2022-10-01T17:40:56.741Z,99960.66
2022-10-01T17:43:24.873Z,99954.19
2022-10-01T17:45:57.029Z,99954.91
2022-10-01T17:48:25.135Z,99960.44
2022-10-01T17:51:01.779Z,99962.25
2022-10-01T17:53:34.942Z,99964.25
2022-10-01T17:56:07.655Z,99965.78
2022-10-01T17:58:35.329Z,99960.03
2022-10-01T18:01:03.334Z,99967.56
2022-10-01T18:03:31.047Z,99982.53
2022-10-01T18:06:04.008Z,99971.47
2022-10-01T18:08:53.782Z,99986.19
2022-10-01T18:11:20.309Z,99974.84
2022-10-01T18:13:48.541Z,99988.53
2022-10-01T18:16:19.273Z,99998.28
2022-10-01T18:21:36.761Z,100010.34
2022-10-01T18:24:05.202Z,100001.13
2022-10-01T18:26:33.602Z,100005.84
2022-10-01T18:29:01.990Z,100015.97
2022-10-01T18:31:34.307Z,100014.66
2022-10-01T18:34:03.418Z,100022.00
2022-10-01T18:36:41.496Z,100037.44
2022-10-01T18:39:15.286Z,100041.19
2022-10-01T18:41:43.072Z,100061.41
2022-10-01T18:44:11.573Z,100047.31
2022-10-01T18:46:54.701Z,100043.94
2022-10-01T18:49:43.615Z,100056.34
2022-10-01T18:52:19.140Z,100064.28
2022-10-01T18:55:25.278Z,100082.44
2022-10-01T18:58:04.310Z,100085.72
2022-10-01T19:00:36.598Z,100077.03
2022-10-01T19:03:18.508Z,100092.84
2022-10-01T19:06:05.583Z,100101.13
2022-10-01T19:08:49.270Z,100104.84
2022-10-01T19:11:23.002Z,100098.69
2022-10-01T19:13:57.939Z,100107.00
2022-10-01T19:16:37.451Z,100120.31
2022-10-01T19:19:16.924Z,100115.13
2022-10-01T19:21:49.199Z,100120.63
2022-10-01T19:24:46.031Z,100136.41
2022-10-01T19:27:23.414Z,100140.75
2022-10-01T19:30:00.243Z,100137.81
2022-10-01T19:32:34.338Z,100137.59
2022-10-01T19:35:06.409Z,100155.19
2022-10-01T19:37:38.664Z,100145.44
2022-10-01T19:40:14.215Z,100145.31
2022-10-01T19:42:44.908Z,100159.25
2022-10-01T19:45:19.097Z,100155.72
2022-10-01T19:47:50.711Z,100161.66
2022-10-01T19:50:21.596Z,100169.47
2022-10-01T19:52:51.517Z,100169.53
2022-10-01T19:55:22.192Z,100169.19
2022-10-01T19:57:50.346Z,100163.91
2022-10-01T20:00:20.107Z,100171.88
2022-10-01T20:02:52.395Z,100174.44
2022-10-01T20:05:22.847Z,100179.28
2022-10-01T20:07:55.736Z,100182.41
2022-10-01T20:10:30.111Z,100195.94
2022-10-01T20:13:06.436Z,100189.47
2022-10-01T20:15:39.627Z,100199.38
2022-10-01T20:18:14.580Z,100201.53
2022-10-01T20:20:45.367Z,100205.06
2022-10-01T20:23:33.543Z,100209.34
2022-10-01T20:26:07.167Z,100214.25
2022-10-01T20:28:37.517Z,100217.59
2022-10-01T20:31:09.596Z,100219.38
2022-10-01T20:33:44.020Z,100215.53
2022-10-01T20:36:15.962Z,100243.56
2022-10-01T20:38:48.904Z,100243.31
2022-10-01T20:41:20.561Z,100238.53
2022-10-01T20:43:50.095Z,100243.78
2022-10-01T20:46:21.729Z,100238.19
2022-10-01T20:48:53.104Z,100244.94
2022-10-01T20:51:35.940Z,100262.47
2022-10-01T20:54:09.122Z,100259.88
2022-10-01T20:56:41.190Z,100259.38
2022-10-01T20:59:14.409Z,100263.84
2022-10-01T21:01:53.147Z,100262.69
2022-10-01T21:04:24.426Z,100270.56
2022-10-01T21:06:55.734Z,100269.03
2022-10-01T21:09:27.972Z,100278.28
2022-10-01T21:11:59.884Z,100283.31
2022-10-01T21:14:30.278Z,100283.34
2022-10-01T21:17:12.029Z,100302.66
2022-10-01T21:19:51.922Z,100305.16
2022-10-01T21:22:31.258Z,100298.78
2022-10-01T21:25:05.749Z,100300.59
2022-10-01T21:27:49.662Z,100315.69
2022-10-01T21:30:18.758Z,100322.13
2022-10-01T21:33:16.316Z,100317.41
2022-10-01T21:35:49.595Z,100330.28
2022-10-01T21:38:31.344Z,100330.28
2022-10-01T21:41:18.608Z,100324.81
2022-10-01T21:43:59.744Z,100329.22
2022-10-01T21:46:33.259Z,100342.28
2022-10-01T21:49:08.661Z,100347.34
2022-10-01T21:51:48.627Z,100345.56
2022-10-01T21:54:30.503Z,100354.31
2022-10-01T21:57:13.597Z,100368.41
2022-10-01T22:00:08.568Z,100366.06
2022-10-01T22:02:43.899Z,100379.56
2022-10-01T22:05:22.657Z,100375.66
2022-10-01T22:07:56.784Z,100385.56
2022-10-01T22:10:28.158Z,100384.19
2022-10-01T22:12:58.584Z,100397.06
2022-10-01T22:15:30.993Z,100405.06
2022-10-01T22:18:01.036Z,100407.44
2022-10-01T22:20:32.169Z,100407.34
2022-10-01T22:23:01.777Z,100410.22
2022-10-01T22:25:30.009Z,100408.00
2022-10-01T22:28:01.522Z,100410.56
2022-10-01T22:30:33.834Z,100426.41
2022-10-01T22:33:07.485Z,100424.56
2022-10-01T22:35:39.630Z,100436.03
2022-10-01T22:38:12.481Z,100438.16
2022-10-01T22:40:44.962Z,100450.88
2022-10-01T22:43:14.110Z,100448.78
2022-10-01T22:46:02.084Z,100453.59
2022-10-01T22:48:52.174Z,100454.22
2022-10-01T22:51:30.537Z,100458.13
2022-10-01T22:54:10.156Z,100471.44
2022-10-01T22:56:44.230Z,100468.88
2022-10-01T22:59:16.687Z,100472.75
2022-10-01T23:01:50.044Z,100475.13
2022-10-01T23:04:33.331Z,100471.56
2022-10-01T23:07:09.139Z,100468.97
2022-10-01T23:09:40.988Z,100461.53
2022-10-01T23:12:13.564Z,100475.81
2022-10-01T23:14:51.695Z,100482.41
2022-10-01T23:17:26.148Z,100491.13
2022-10-01T23:20:01.913Z,100498.69
2022-10-01T23:22:40.451Z,100504.66
2022-10-01T23:25:17.495Z,100497.91
2022-10-01T23:28:07.820Z,100500.38
2022-10-01T23:30:44.629Z,100507.34
2022-10-01T23:33:23.193Z,100508.38
2022-10-01T23:35:59.840Z,100516.16
2022-10-01T23:38:45.216Z,100513.81
2022-10-01T23:41:16.374Z,100523.25
2022-10-01T23:43:46.975Z,100525.53
2022-10-01T23:46:16.425Z,100534.28
2022-10-01T23:48:47.557Z,100519.81
2022-10-01T23:51:20.217Z,100525.06
2022-10-01T23:53:53.393Z,100531.81
2022-10-01T23:56:41.616Z,100531.69
2022-10-01T23:59:12.093Z,100533.03
